Time,TemperatureF,DewpointF,PressureIn,WindDirection,WindDirectionDegrees,WindSpeedMPH,WindSpeedGustMPH,Humidity,HourlyPrecipIn,Conditions,Clouds,dailyrainin,SoftwareType,DateUTC
2013-07-02 00:55:00,78.3,74.5,30.00,SE,127,0.0,9.0,88,0.00,,BKN085,0.00,VWS V14.00,2013-07-02 04:55:00,
2013-07-02 01:55:00,79.7,75.5,29.99,East,101,5.0,10.0,87,0.00,,BKN180,0.00,VWS V14.00,2013-07-02 05:55:00,
2013-07-02 02:55:00,80.6,77.1,29.97,SE,128,0.0,9.0,89,0.00,,BKN200,0.00,VWS V14.00,2013-07-02 06:55:00,
2013-07-02 03:55:00,81.1,77.6,29.96,SSE,152,0.0,9.0,89,0.00,,BKN180,0.00,VWS V14.00,2013-07-02 07:55:00,
2013-07-02 04:55:00,80.9,76.7,29.96,ESE,114,0.0,12.0,87,0.00,,BKN180,0.00,VWS V14.00,2013-07-02 08:55:00,
2013-07-02 05:55:00,81.3,77.1,29.97,SE,138,5.0,13.0,87,0.00,,BKN200,0.00,VWS V14.00,2013-07-02 09:55:00,
2013-07-02 06:55:00,81.6,77.0,29.99,SE,137,2.0,11.0,86,0.00,,BKN200,0.00,VWS V14.00,2013-07-02 10:55:00,
2013-07-02 07:55:00,83.3,77.6,30.00,SSW,192,0.0,11.0,83,0.00,,BKN200,0.00,VWS V14.00,2013-07-02 11:55:00,
2013-07-02 08:55:00,83.9,77.8,30.02,SSW,196,2.0,10.0,82,0.00,,BKN200,0.00,VWS V14.00,2013-07-02 12:55:00,
2013-07-02 09:55:00,84.3,77.8,30.03,SSE,161,0.0,12.0,81,0.00,,BKN200,0.00,VWS V14.00,2013-07-02 13:55:00,
2013-07-02 10:55:00,86.4,78.3,30.03,ESE,115,6.0,11.0,77,0.00,,BKN200,0.00,VWS V14.00,2013-07-02 14:55:00,
2013-07-02 11:55:00,88.1,79.2,30.04,SE,126,7.0,13.0,75,0.00,,BKN220,0.00,VWS V14.00,2013-07-02 15:55:00,
2013-07-02 12:55:00,85.3,78.4,30.04,SSE,148,0.0,16.0,80,0.00,,BKN220,0.00,VWS V14.00,2013-07-02 16:55:00,
2013-07-02 13:55:00,85.6,78.7,30.03,SSE,167,9.0,12.0,80,0.00,,BKN230,0.00,VWS V14.00,2013-07-02 17:55:00,
2013-07-02 14:55:00,87.5,78.6,30.03,South,178,1.0,11.0,75,0.00,,BKN230,0.00,VWS V14.00,2013-07-02 18:55:00,
2013-07-02 15:55:00,87.6,78.3,30.02,East,96,0.0,9.0,74,0.00,,OVC230,0.00,VWS V14.00,2013-07-02 19:55:00,
2013-07-02 16:55:00,86.1,78.1,30.00,East,97,0.0,10.0,77,0.00,,OVC200,0.00,VWS V14.00,2013-07-02 20:55:00,
2013-07-02 17:55:00,82.4,78.5,30.01,ESE,119,0.0,10.0,88,0.00,,BKN200,0.04,VWS V14.00,2013-07-02 21:55:00,
2013-07-02 18:55:00,81.5,76.2,30.04,South,169,0.0,7.0,84,0.00,,BKN200,0.04,VWS V14.00,2013-07-02 22:55:00,
2013-07-02 19:55:00,81.2,74.8,30.05,South,171,0.0,7.0,81,0.00,,OVC200,0.04,VWS V14.00,2013-07-02 23:55:00,
2013-07-02 20:55:00,81.2,75.6,30.07,SSE,154,0.0,6.0,83,0.00,,OVC200,0.04,VWS V14.00,2013-07-03 00:55:00,
2013-07-02 21:55:00,80.2,74.9,30.08,SW,236,0.0,3.0,84,0.00,,BKN200,0.04,VWS V14.00,2013-07-03 01:55:00,
2013-07-02 22:55:00,79.2,75.0,30.08,SW,236,0.0,1.0,87,0.00,,BKN200,0.04,VWS V14.00,2013-07-03 02:55:00,
2013-07-02 23:57:00,78.5,75.0,30.08,SW,236,0.0,0.0,89,0.00,,BKN240,0.00,VWS V14.00,2013-07-03 03:57:00,